sensor_id;sensor_type;location;lat;lon;timestamp;temperature;humidity
4701;DHT22;8724;51.272;6.554;2024-03-06T00:00:02;11.40;99.90
4701;DHT22;8724;51.272;6.554;2024-03-06T00:02:30;11.20;99.90
4701;DHT22;8724;51.272;6.554;2024-03-06T00:04:59;11.20;99.90
4701;DHT22;8724;51.272;6.554;2024-03-06T00:07:29;11.20;99.90
4701;DHT22;8724;51.272;6.554;2024-03-06T00:09:57;11.10;99.90
4701;DHT22;8724;51.272;6.554;2024-03-06T00:12:25;11.10;99.90
4701;DHT22;8724;51.272;6.554;2024-03-06T00:14:53;11.10;99.90
4701;DHT22;8724;51.272;6.554;2024-03-06T00:17:21;11.10;99.90
4701;DHT22;8724;51.272;6.554;2024-03-06T00:19:49;11.00;99.90
4701;DHT22;8724;51.272;6.554;2024-03-06T00:22:18;11.00;99.90
4701;DHT22;8724;51.272;6.554;2024-03-06T00:24:51;11.00;99.90
4701;DHT22;8724;51.272;6.554;2024-03-06T00:27:19;11.00;99.90
4701;DHT22;8724;51.272;6.554;2024-03-06T00:29:47;11.00;99.90
4701;DHT22;8724;51.272;6.554;2024-03-06T00:32:16;11.00;99.90
4701;DHT22;8724;51.272;6.554;2024-03-06T00:34:44;11.00;99.90
4701;DHT22;8724;51.272;6.554;2024-03-06T00:37:12;11.00;99.90
4701;DHT22;8724;51.272;6.554;2024-03-06T00:39:40;11.00;99.90
4701;DHT22;8724;51.272;6.554;2024-03-06T00:42:10;11.20;99.90
4701;DHT22;8724;51.272;6.554;2024-03-06T00:44:41;10.90;99.90
4701;DHT22;8724;51.272;6.554;2024-03-06T00:47:09;10.90;99.90
4701;DHT22;8724;51.272;6.554;2024-03-06T00:49:37;10.90;99.90
4701;DHT22;8724;51.272;6.554;2024-03-06T00:52:06;10.80;99.90
4701;DHT22;8724;51.272;6.554;2024-03-06T00:54:34;10.80;99.90
4701;DHT22;8724;51.272;6.554;2024-03-06T00:57:02;10.90;99.90
4701;DHT22;8724;51.272;6.554;2024-03-06T00:59:31;10.80;99.90
4701;DHT22;8724;51.272;6.554;2024-03-06T01:01:59;10.80;99.90
4701;DHT22;8724;51.272;6.554;2024-03-06T01:04:27;10.80;99.90
4701;DHT22;8724;51.272;6.554;2024-03-06T01:06:56;10.80;99.90
4701;DHT22;8724;51.272;6.554;2024-03-06T01:09:25;10.80;99.90
4701;DHT22;8724;51.272;6.554;2024-03-06T01:11:54;10.70;99.90
4701;DHT22;8724;51.272;6.554;2024-03-06T01:14:22;10.80;99.90
4701;DHT22;8724;51.272;6.554;2024-03-06T01:16:52;10.80;99.90
4701;DHT22;8724;51.272;6.554;2024-03-06T01:19:20;10.70;99.90
4701;DHT22;8724;51.272;6.554;2024-03-06T01:21:48;10.70;99.90
4701;DHT22;8724;51.272;6.554;2024-03-06T01:24:16;10.70;99.90
4701;DHT22;8724;51.272;6.554;2024-03-06T01:26:44;10.70;99.90
4701;DHT22;8724;51.272;6.554;2024-03-06T01:29:12;10.60;99.90
4701;DHT22;8724;51.272;6.554;2024-03-06T01:31:41;10.70;99.90
4701;DHT22;8724;51.272;6.554;2024-03-06T01:34:10;10.60;99.90
4701;DHT22;8724;51.272;6.554;2024-03-06T01:36:38;10.60;99.90
4701;DHT22;8724;51.272;6.554;2024-03-06T01:39:06;10.60;99.90
4701;DHT22;8724;51.272;6.554;2024-03-06T01:41:36;10.60;99.90
4701;DHT22;8724;51.272;6.554;2024-03-06T01:44:04;10.60;99.90
4701;DHT22;8724;51.272;6.554;2024-03-06T01:46:32;10.60;99.90
4701;DHT22;8724;51.272;6.554;2024-03-06T01:49:01;10.60;99.90
4701;DHT22;8724;51.272;6.554;2024-03-06T01:51:32;10.60;99.90
4701;DHT22;8724;51.272;6.554;2024-03-06T01:54:01;10.50;99.90
4701;DHT22;8724;51.272;6.554;2024-03-06T01:56:31;10.50;99.90
4701;DHT22;8724;51.272;6.554;2024-03-06T01:59:00;10.50;99.90
4701;DHT22;8724;51.272;6.554;2024-03-06T02:01:29;10.60;99.90
4701;DHT22;8724;51.272;6.554;2024-03-06T02:03:59;10.50;99.90
4701;DHT22;8724;51.272;6.554;2024-03-06T02:06:28;10.50;99.90
4701;DHT22;8724;51.272;6.554;2024-03-06T02:08:58;10.50;99.90
4701;DHT22;8724;51.272;6.554;2024-03-06T02:11:27;10.50;99.90
4701;DHT22;8724;51.272;6.554;2024-03-06T02:13:55;10.50;99.90
4701;DHT22;8724;51.272;6.554;2024-03-06T02:16:23;10.50;99.90
4701;DHT22;8724;51.272;6.554;2024-03-06T02:18:52;10.50;99.90
4701;DHT22;8724;51.272;6.554;2024-03-06T02:21:23;10.50;99.90
4701;DHT22;8724;51.272;6.554;2024-03-06T02:23:52;10.50;99.90
4701;DHT22;8724;51.272;6.554;2024-03-06T02:26:21;10.50;99.90
4701;DHT22;8724;51.272;6.554;2024-03-06T02:28:50;10.50;99.90
4701;DHT22;8724;51.272;6.554;2024-03-06T02:31:20;10.50;99.90
4701;DHT22;8724;51.272;6.554;2024-03-06T02:33:49;10.50;99.90
4701;DHT22;8724;51.272;6.554;2024-03-06T02:36:17;10.50;99.90
4701;DHT22;8724;51.272;6.554;2024-03-06T02:38:47;10.50;99.90
4701;DHT22;8724;51.272;6.554;2024-03-06T02:41:15;10.50;99.90
4701;DHT22;8724;51.272;6.554;2024-03-06T02:43:44;10.50;99.90
4701;DHT22;8724;51.272;6.554;2024-03-06T02:46:13;10.50;99.90
4701;DHT22;8724;51.272;6.554;2024-03-06T02:48:41;10.50;99.90
4701;DHT22;8724;51.272;6.554;2024-03-06T02:51:09;10.50;99.90
4701;DHT22;8724;51.272;6.554;2024-03-06T02:53:37;10.50;99.90
4701;DHT22;8724;51.272;6.554;2024-03-06T02:56:07;10.50;99.90
4701;DHT22;8724;51.272;6.554;2024-03-06T02:58:35;10.50;99.90
4701;DHT22;8724;51.272;6.554;2024-03-06T03:01:04;10.50;99.90
4701;DHT22;8724;51.272;6.554;2024-03-06T03:03:32;10.50;99.90
4701;DHT22;8724;51.272;6.554;2024-03-06T03:06:00;10.50;99.90
4701;DHT22;8724;51.272;6.554;2024-03-06T03:08:28;10.50;99.90
4701;DHT22;8724;51.272;6.554;2024-03-06T03:10:56;10.50;99.90
4701;DHT22;8724;51.272;6.554;2024-03-06T03:13:26;10.50;99.90
4701;DHT22;8724;51.272;6.554;2024-03-06T03:15:54;10.50;99.90
4701;DHT22;8724;51.272;6.554;2024-03-06T03:18:22;10.50;99.90
4701;DHT22;8724;51.272;6.554;2024-03-06T03:20:50;10.40;99.90
4701;DHT22;8724;51.272;6.554;2024-03-06T03:23:19;10.40;99.90
4701;DHT22;8724;51.272;6.554;2024-03-06T03:25:49;10.50;99.90
4701;DHT22;8724;51.272;6.554;2024-03-06T03:28:17;10.40;99.90
4701;DHT22;8724;51.272;6.554;2024-03-06T03:30:47;10.40;99.90
4701;DHT22;8724;51.272;6.554;2024-03-06T03:33:15;10.40;99.90
4701;DHT22;8724;51.272;6.554;2024-03-06T03:35:43;10.30;99.90
4701;DHT22;8724;51.272;6.554;2024-03-06T03:38:11;10.40;99.90
4701;DHT22;8724;51.272;6.554;2024-03-06T03:40:40;10.30;99.90
4701;DHT22;8724;51.272;6.554;2024-03-06T03:43:08;10.30;99.90
4701;DHT22;8724;51.272;6.554;2024-03-06T03:45:37;10.30;99.90
4701;DHT22;8724;51.272;6.554;2024-03-06T03:48:07;10.30;99.90
4701;DHT22;8724;51.272;6.554;2024-03-06T03:50:35;10.30;99.90
4701;DHT22;8724;51.272;6.554;2024-03-06T03:53:03;10.20;99.90
4701;DHT22;8724;51.272;6.554;2024-03-06T03:55:32;10.20;99.90
4701;DHT22;8724;51.272;6.554;2024-03-06T03:58:00;10.20;99.90
4701;DHT22;8724;51.272;6.554;2024-03-06T04:00:28;10.20;99.90
4701;DHT22;8724;51.272;6.554;2024-03-06T04:02:57;10.20;99.90
4701;DHT22;8724;51.272;6.554;2024-03-06T04:05:27;10.10;99.90
4701;DHT22;8724;51.272;6.554;2024-03-06T04:07:55;10.10;99.90
4701;DHT22;8724;51.272;6.554;2024-03-06T04:10:23;10.10;99.90
4701;DHT22;8724;51.272;6.554;2024-03-06T04:12:51;10.10;99.90
4701;DHT22;8724;51.272;6.554;2024-03-06T04:15:20;10.10;99.90
4701;DHT22;8724;51.272;6.554;2024-03-06T04:17:48;10.10;99.90
4701;DHT22;8724;51.272;6.554;2024-03-06T04:20:17;10.00;99.90
4701;DHT22;8724;51.272;6.554;2024-03-06T04:22:47;10.00;99.90
4701;DHT22;8724;51.272;6.554;2024-03-06T04:25:18;10.00;99.90
4701;DHT22;8724;51.272;6.554;2024-03-06T04:27:46;10.00;99.90
4701;DHT22;8724;51.272;6.554;2024-03-06T04:30:14;10.00;99.90
4701;DHT22;8724;51.272;6.554;2024-03-06T04:32:42;10.00;99.90
4701;DHT22;8724;51.272;6.554;2024-03-06T04:35:11;9.90;99.90
4701;DHT22;8724;51.272;6.554;2024-03-06T04:37:39;9.90;99.90
4701;DHT22;8724;51.272;6.554;2024-03-06T04:40:10;9.90;99.90
4701;DHT22;8724;51.272;6.554;2024-03-06T04:42:38;9.90;99.90
4701;DHT22;8724;51.272;6.554;2024-03-06T04:45:10;10.00;99.90
4701;DHT22;8724;51.272;6.554;2024-03-06T04:47:39;9.80;99.90
4701;DHT22;8724;51.272;6.554;2024-03-06T04:50:08;9.80;99.90
4701;DHT22;8724;51.272;6.554;2024-03-06T04:52:38;9.80;99.90
4701;DHT22;8724;51.272;6.554;2024-03-06T04:55:08;9.80;99.90
4701;DHT22;8724;51.272;6.554;2024-03-06T04:57:39;9.80;99.90
4701;DHT22;8724;51.272;6.554;2024-03-06T05:00:10;9.80;99.90
4701;DHT22;8724;51.272;6.554;2024-03-06T05:02:39;9.70;99.90
4701;DHT22;8724;51.272;6.554;2024-03-06T05:05:26;9.70;99.90
4701;DHT22;8724;51.272;6.554;2024-03-06T05:08:12;9.70;99.90
4701;DHT22;8724;51.272;6.554;2024-03-06T05:11:00;9.70;99.90
4701;DHT22;8724;51.272;6.554;2024-03-06T05:13:47;9.70;99.90
4701;DHT22;8724;51.272;6.554;2024-03-06T05:16:33;9.60;99.90
4701;DHT22;8724;51.272;6.554;2024-03-06T05:19:19;9.70;99.90
4701;DHT22;8724;51.272;6.554;2024-03-06T05:22:05;9.60;99.90
4701;DHT22;8724;51.272;6.554;2024-03-06T05:24:51;9.60;99.90
4701;DHT22;8724;51.272;6.554;2024-03-06T05:27:37;9.60;99.90
4701;DHT22;8724;51.272;6.554;2024-03-06T05:30:24;9.60;99.90
4701;DHT22;8724;51.272;6.554;2024-03-06T05:33:09;9.60;99.90
4701;DHT22;8724;51.272;6.554;2024-03-06T05:35:56;9.50;99.90
4701;DHT22;8724;51.272;6.554;2024-03-06T05:38:42;9.50;99.90
4701;DHT22;8724;51.272;6.554;2024-03-06T05:41:28;9.50;99.90
4701;DHT22;8724;51.272;6.554;2024-03-06T05:44:15;9.50;99.90
4701;DHT22;8724;51.272;6.554;2024-03-06T05:47:02;9.50;99.90
4701;DHT22;8724;51.272;6.554;2024-03-06T05:49:48;9.50;99.90
4701;DHT22;8724;51.272;6.554;2024-03-06T05:52:34;9.50;99.90
4701;DHT22;8724;51.272;6.554;2024-03-06T05:55:20;9.50;99.90
4701;DHT22;8724;51.272;6.554;2024-03-06T05:58:06;9.50;99.90
4701;DHT22;8724;51.272;6.554;2024-03-06T06:00:34;9.50;99.90
4701;DHT22;8724;51.272;6.554;2024-03-06T06:03:04;9.50;99.90
4701;DHT22;8724;51.272;6.554;2024-03-06T06:05:32;9.50;99.90
4701;DHT22;8724;51.272;6.554;2024-03-06T06:08:02;9.50;99.90
4701;DHT22;8724;51.272;6.554;2024-03-06T06:10:31;9.50;99.90
4701;DHT22;8724;51.272;6.554;2024-03-06T06:13:00;9.50;99.90
4701;DHT22;8724;51.272;6.554;2024-03-06T06:15:32;9.40;99.90
4701;DHT22;8724;51.272;6.554;2024-03-06T06:18:00;9.40;99.90
4701;DHT22;8724;51.272;6.554;2024-03-06T06:20:29;9.40;99.90
4701;DHT22;8724;51.272;6.554;2024-03-06T06:22:58;9.40;99.90
4701;DHT22;8724;51.272;6.554;2024-03-06T06:25:26;9.40;99.90
4701;DHT22;8724;51.272;6.554;2024-03-06T06:27:54;9.40;99.90
4701;DHT22;8724;51.272;6.554;2024-03-06T06:30:23;9.40;99.90
4701;DHT22;8724;51.272;6.554;2024-03-06T06:32:51;9.40;99.90
4701;DHT22;8724;51.272;6.554;2024-03-06T06:35:19;9.40;99.90
4701;DHT22;8724;51.272;6.554;2024-03-06T06:37:50;9.40;99.90
4701;DHT22;8724;51.272;6.554;2024-03-06T06:40:19;9.40;99.90
4701;DHT22;8724;51.272;6.554;2024-03-06T06:42:49;9.40;99.90
4701;DHT22;8724;51.272;6.554;2024-03-06T06:45:18;9.30;99.90
4701;DHT22;8724;51.272;6.554;2024-03-06T06:47:47;9.40;99.90
4701;DHT22;8724;51.272;6.554;2024-03-06T06:50:16;9.40;99.90
4701;DHT22;8724;51.272;6.554;2024-03-06T06:52:45;9.30;99.90
4701;DHT22;8724;51.272;6.554;2024-03-06T06:55:15;9.40;99.90
4701;DHT22;8724;51.272;6.554;2024-03-06T06:57:44;9.40;99.90
4701;DHT22;8724;51.272;6.554;2024-03-06T07:00:13;9.40;99.90
4701;DHT22;8724;51.272;6.554;2024-03-06T07:02:43;9.40;99.90
4701;DHT22;8724;51.272;6.554;2024-03-06T07:05:12;9.40;99.90
4701;DHT22;8724;51.272;6.554;2024-03-06T07:07:40;9.40;99.90
4701;DHT22;8724;51.272;6.554;2024-03-06T07:10:09;9.40;99.90
4701;DHT22;8724;51.272;6.554;2024-03-06T07:12:39;9.40;99.90
4701;DHT22;8724;51.272;6.554;2024-03-06T07:15:07;9.40;99.90
4701;DHT22;8724;51.272;6.554;2024-03-06T07:17:35;9.40;99.90
4701;DHT22;8724;51.272;6.554;2024-03-06T07:20:05;9.40;99.90
4701;DHT22;8724;51.272;6.554;2024-03-06T07:22:37;9.40;99.90
4701;DHT22;8724;51.272;6.554;2024-03-06T07:25:05;9.50;99.90
4701;DHT22;8724;51.272;6.554;2024-03-06T07:27:33;9.50;99.90
4701;DHT22;8724;51.272;6.554;2024-03-06T07:30:03;9.50;99.90
4701;DHT22;8724;51.272;6.554;2024-03-06T07:32:32;9.50;99.90
4701;DHT22;8724;51.272;6.554;2024-03-06T07:35:00;9.50;99.90
4701;DHT22;8724;51.272;6.554;2024-03-06T07:37:28;9.50;99.90
4701;DHT22;8724;51.272;6.554;2024-03-06T07:39:56;9.60;99.90
4701;DHT22;8724;51.272;6.554;2024-03-06T07:42:25;9.60;99.90
4701;DHT22;8724;51.272;6.554;2024-03-06T07:44:53;9.60;99.90
4701;DHT22;8724;51.272;6.554;2024-03-06T07:47:22;9.90;99.90
4701;DHT22;8724;51.272;6.554;2024-03-06T07:49:51;9.70;99.90
4701;DHT22;8724;51.272;6.554;2024-03-06T07:52:19;9.70;99.90
4701;DHT22;8724;51.272;6.554;2024-03-06T07:54:47;9.70;99.90
4701;DHT22;8724;51.272;6.554;2024-03-06T07:57:15;9.70;99.90
4701;DHT22;8724;51.272;6.554;2024-03-06T07:59:44;9.70;99.90
4701;DHT22;8724;51.272;6.554;2024-03-06T08:02:12;9.70;99.90
4701;DHT22;8724;51.272;6.554;2024-03-06T08:04:42;9.80;99.90
4701;DHT22;8724;51.272;6.554;2024-03-06T08:07:10;9.80;99.90
4701;DHT22;8724;51.272;6.554;2024-03-06T08:09:38;9.50;99.90
4701;DHT22;8724;51.272;6.554;2024-03-06T08:12:07;9.90;99.90
4701;DHT22;8724;51.272;6.554;2024-03-06T08:14:35;9.90;99.90
4701;DHT22;8724;51.272;6.554;2024-03-06T08:17:04;9.90;99.90
4701;DHT22;8724;51.272;6.554;2024-03-06T08:19:32;9.90;99.90
4701;DHT22;8724;51.272;6.554;2024-03-06T08:22:01;9.90;99.90
4701;DHT22;8724;51.272;6.554;2024-03-06T08:24:32;10.00;99.90
4701;DHT22;8724;51.272;6.554;2024-03-06T08:27:01;10.00;99.90
4701;DHT22;8724;51.272;6.554;2024-03-06T08:29:30;10.00;99.90
4701;DHT22;8724;51.272;6.554;2024-03-06T08:31:58;10.00;99.90
4701;DHT22;8724;51.272;6.554;2024-03-06T08:34:27;10.00;99.90
4701;DHT22;8724;51.272;6.554;2024-03-06T08:36:56;10.10;99.90
4701;DHT22;8724;51.272;6.554;2024-03-06T08:39:25;10.10;99.90
4701;DHT22;8724;51.272;6.554;2024-03-06T08:41:53;10.10;99.90
4701;DHT22;8724;51.272;6.554;2024-03-06T08:44:22;10.10;99.90
4701;DHT22;8724;51.272;6.554;2024-03-06T08:46:50;10.20;99.90
4701;DHT22;8724;51.272;6.554;2024-03-06T08:49:18;10.20;99.90
4701;DHT22;8724;51.272;6.554;2024-03-06T08:51:46;10.20;99.90
4701;DHT22;8724;51.272;6.554;2024-03-06T08:54:14;10.20;99.90
4701;DHT22;8724;51.272;6.554;2024-03-06T08:56:44;10.20;99.90
4701;DHT22;8724;51.272;6.554;2024-03-06T08:59:12;10.30;99.90
4701;DHT22;8724;51.272;6.554;2024-03-06T09:01:40;10.30;99.90
4701;DHT22;8724;51.272;6.554;2024-03-06T09:04:08;10.30;99.90
4701;DHT22;8724;51.272;6.554;2024-03-06T09:06:36;10.30;99.90
4701;DHT22;8724;51.272;6.554;2024-03-06T09:09:04;10.30;99.90
4701;DHT22;8724;51.272;6.554;2024-03-06T09:11:33;10.30;99.90
4701;DHT22;8724;51.272;6.554;2024-03-06T09:14:03;10.40;99.90
4701;DHT22;8724;51.272;6.554;2024-03-06T09:16:31;10.30;99.90
4701;DHT22;8724;51.272;6.554;2024-03-06T09:19:00;10.40;99.90
4701;DHT22;8724;51.272;6.554;2024-03-06T09:21:28;10.40;99.90
4701;DHT22;8724;51.272;6.554;2024-03-06T09:23:57;10.40;99.90
4701;DHT22;8724;51.272;6.554;2024-03-06T09:26:25;10.40;99.90
4701;DHT22;8724;51.272;6.554;2024-03-06T09:28:53;10.40;99.90
4701;DHT22;8724;51.272;6.554;2024-03-06T09:31:22;10.50;99.90
4701;DHT22;8724;51.272;6.554;2024-03-06T09:33:51;10.50;99.90
4701;DHT22;8724;51.272;6.554;2024-03-06T09:36:19;10.50;99.90
4701;DHT22;8724;51.272;6.554;2024-03-06T09:38:48;10.50;99.90
4701;DHT22;8724;51.272;6.554;2024-03-06T09:41:16;10.50;99.90
4701;DHT22;8724;51.272;6.554;2024-03-06T09:43:44;10.50;99.90
4701;DHT22;8724;51.272;6.554;2024-03-06T09:46:13;10.60;99.90
4701;DHT22;8724;51.272;6.554;2024-03-06T09:48:47;10.60;99.90
4701;DHT22;8724;51.272;6.554;2024-03-06T09:51:15;10.60;99.90
4701;DHT22;8724;51.272;6.554;2024-03-06T09:53:43;10.60;99.90
4701;DHT22;8724;51.272;6.554;2024-03-06T09:56:11;10.60;99.90
4701;DHT22;8724;51.272;6.554;2024-03-06T09:58:40;10.60;99.90
4701;DHT22;8724;51.272;6.554;2024-03-06T10:01:09;10.60;99.90
4701;DHT22;8724;51.272;6.554;2024-03-06T10:03:39;10.60;99.90
4701;DHT22;8724;51.272;6.554;2024-03-06T10:06:09;10.70;99.90
4701;DHT22;8724;51.272;6.554;2024-03-06T10:08:42;10.70;99.90
4701;DHT22;8724;51.272;6.554;2024-03-06T10:11:11;10.70;99.90
4701;DHT22;8724;51.272;6.554;2024-03-06T10:13:40;10.70;99.90
4701;DHT22;8724;51.272;6.554;2024-03-06T10:16:08;10.70;99.90
4701;DHT22;8724;51.272;6.554;2024-03-06T10:18:38;10.80;99.90
4701;DHT22;8724;51.272;6.554;2024-03-06T10:21:06;10.80;99.90
4701;DHT22;8724;51.272;6.554;2024-03-06T10:23:36;10.80;99.90
4701;DHT22;8724;51.272;6.554;2024-03-06T10:26:07;10.80;99.90
4701;DHT22;8724;51.272;6.554;2024-03-06T10:28:36;10.80;99.90
4701;DHT22;8724;51.272;6.554;2024-03-06T10:31:05;10.80;99.90
4701;DHT22;8724;51.272;6.554;2024-03-06T10:33:34;10.80;99.90
4701;DHT22;8724;51.272;6.554;2024-03-06T10:36:05;10.90;99.90
4701;DHT22;8724;51.272;6.554;2024-03-06T10:38:44;10.90;99.90
4701;DHT22;8724;51.272;6.554;2024-03-06T10:41:14;10.90;99.90
4701;DHT22;8724;51.272;6.554;2024-03-06T10:43:47;10.90;99.90
4701;DHT22;8724;51.272;6.554;2024-03-06T10:46:20;10.90;99.90
4701;DHT22;8724;51.272;6.554;2024-03-06T10:48:48;10.90;99.90
4701;DHT22;8724;51.272;6.554;2024-03-06T10:51:18;10.90;99.90
4701;DHT22;8724;51.272;6.554;2024-03-06T10:53:49;11.00;99.90
4701;DHT22;8724;51.272;6.554;2024-03-06T10:56:18;11.00;99.90
4701;DHT22;8724;51.272;6.554;2024-03-06T10:58:50;11.00;99.90
4701;DHT22;8724;51.272;6.554;2024-03-06T11:01:19;11.00;99.90
4701;DHT22;8724;51.272;6.554;2024-03-06T11:03:48;11.00;99.90
4701;DHT22;8724;51.272;6.554;2024-03-06T11:06:17;11.10;99.90
4701;DHT22;8724;51.272;6.554;2024-03-06T11:08:45;11.10;99.90
4701;DHT22;8724;51.272;6.554;2024-03-06T11:11:23;11.10;99.90
4701;DHT22;8724;51.272;6.554;2024-03-06T11:13:54;11.10;99.90
4701;DHT22;8724;51.272;6.554;2024-03-06T11:16:28;11.10;99.90
4701;DHT22;8724;51.272;6.554;2024-03-06T11:19:06;11.10;99.90
4701;DHT22;8724;51.272;6.554;2024-03-06T11:21:45;11.10;99.90
4701;DHT22;8724;51.272;6.554;2024-03-06T11:24:16;11.20;99.90
4701;DHT22;8724;51.272;6.554;2024-03-06T11:26:46;11.20;99.90
4701;DHT22;8724;51.272;6.554;2024-03-06T11:29:18;11.20;99.90
4701;DHT22;8724;51.272;6.554;2024-03-06T11:32:04;11.20;99.90
4701;DHT22;8724;51.272;6.554;2024-03-06T11:34:35;11.20;99.90
4701;DHT22;8724;51.272;6.554;2024-03-06T11:37:04;11.20;99.90
4701;DHT22;8724;51.272;6.554;2024-03-06T11:39:34;11.30;99.90
4701;DHT22;8724;51.272;6.554;2024-03-06T11:42:05;11.30;99.90
4701;DHT22;8724;51.272;6.554;2024-03-06T11:44:36;11.30;99.90
4701;DHT22;8724;51.272;6.554;2024-03-06T11:47:07;11.30;99.90
4701;DHT22;8724;51.272;6.554;2024-03-06T11:49:36;11.40;99.90
4701;DHT22;8724;51.272;6.554;2024-03-06T11:52:06;11.40;99.90
4701;DHT22;8724;51.272;6.554;2024-03-06T11:54:35;11.40;99.90
4701;DHT22;8724;51.272;6.554;2024-03-06T11:57:05;11.40;99.90
4701;DHT22;8724;51.272;6.554;2024-03-06T11:59:34;11.40;99.90
4701;DHT22;8724;51.272;6.554;2024-03-06T12:02:06;11.50;99.90
4701;DHT22;8724;51.272;6.554;2024-03-06T12:04:35;11.50;99.90
4701;DHT22;8724;51.272;6.554;2024-03-06T12:07:05;11.50;99.90
4701;DHT22;8724;51.272;6.554;2024-03-06T12:09:35;11.60;99.90
4701;DHT22;8724;51.272;6.554;2024-03-06T12:12:10;11.60;99.90
4701;DHT22;8724;51.272;6.554;2024-03-06T12:14:40;11.60;99.90
4701;DHT22;8724;51.272;6.554;2024-03-06T12:17:12;11.60;99.90
4701;DHT22;8724;51.272;6.554;2024-03-06T12:19:42;11.60;99.90
4701;DHT22;8724;51.272;6.554;2024-03-06T12:22:12;11.70;99.90
4701;DHT22;8724;51.272;6.554;2024-03-06T12:24:41;11.70;99.90
4701;DHT22;8724;51.272;6.554;2024-03-06T12:27:11;11.70;99.90
4701;DHT22;8724;51.272;6.554;2024-03-06T12:29:40;11.70;99.90
4701;DHT22;8724;51.272;6.554;2024-03-06T12:32:17;11.70;99.90
4701;DHT22;8724;51.272;6.554;2024-03-06T12:34:57;11.80;99.90
4701;DHT22;8724;51.272;6.554;2024-03-06T12:37:30;11.80;99.90
4701;DHT22;8724;51.272;6.554;2024-03-06T12:39:59;11.80;99.90
4701;DHT22;8724;51.272;6.554;2024-03-06T12:42:29;11.90;99.90
4701;DHT22;8724;51.272;6.554;2024-03-06T12:44:57;11.90;99.90
4701;DHT22;8724;51.272;6.554;2024-03-06T12:47:25;11.90;99.90
4701;DHT22;8724;51.272;6.554;2024-03-06T12:49:54;11.90;99.90
4701;DHT22;8724;51.272;6.554;2024-03-06T12:52:22;12.00;99.90
4701;DHT22;8724;51.272;6.554;2024-03-06T12:54:50;12.00;99.90
4701;DHT22;8724;51.272;6.554;2024-03-06T12:57:18;12.00;99.90
4701;DHT22;8724;51.272;6.554;2024-03-06T12:59:47;12.10;99.90
4701;DHT22;8724;51.272;6.554;2024-03-06T13:02:15;12.10;99.90
4701;DHT22;8724;51.272;6.554;2024-03-06T13:04:44;12.10;99.90
4701;DHT22;8724;51.272;6.554;2024-03-06T13:07:12;12.10;99.90
4701;DHT22;8724;51.272;6.554;2024-03-06T13:09:41;12.10;99.90
4701;DHT22;8724;51.272;6.554;2024-03-06T13:12:09;12.10;99.90
4701;DHT22;8724;51.272;6.554;2024-03-06T13:14:37;12.10;99.90
4701;DHT22;8724;51.272;6.554;2024-03-06T13:17:07;12.10;99.90
4701;DHT22;8724;51.272;6.554;2024-03-06T13:19:35;12.10;99.90
4701;DHT22;8724;51.272;6.554;2024-03-06T13:22:03;12.10;99.90
4701;DHT22;8724;51.272;6.554;2024-03-06T13:24:34;12.10;99.90
4701;DHT22;8724;51.272;6.554;2024-03-06T13:27:04;12.10;99.90
4701;DHT22;8724;51.272;6.554;2024-03-06T13:29:33;12.10;99.90
4701;DHT22;8724;51.272;6.554;2024-03-06T13:32:01;12.20;99.90
4701;DHT22;8724;51.272;6.554;2024-03-06T13:34:30;12.10;99.90
4701;DHT22;8724;51.272;6.554;2024-03-06T13:36:59;12.20;99.90
4701;DHT22;8724;51.272;6.554;2024-03-06T13:39:27;12.20;99.90
4701;DHT22;8724;51.272;6.554;2024-03-06T13:41:55;12.20;99.90
4701;DHT22;8724;51.272;6.554;2024-03-06T13:44:23;12.20;99.90
4701;DHT22;8724;51.272;6.554;2024-03-06T13:46:51;12.20;99.90
4701;DHT22;8724;51.272;6.554;2024-03-06T13:49:36;12.20;99.90
4701;DHT22;8724;51.272;6.554;2024-03-06T13:52:05;12.20;99.90
4701;DHT22;8724;51.272;6.554;2024-03-06T13:54:33;12.30;99.90
4701;DHT22;8724;51.272;6.554;2024-03-06T13:57:02;12.30;99.90
4701;DHT22;8724;51.272;6.554;2024-03-06T13:59:30;12.30;99.90
4701;DHT22;8724;51.272;6.554;2024-03-06T14:01:59;12.30;99.90
4701;DHT22;8724;51.272;6.554;2024-03-06T14:04:27;12.30;99.90
4701;DHT22;8724;51.272;6.554;2024-03-06T14:06:56;12.30;99.90
4701;DHT22;8724;51.272;6.554;2024-03-06T14:09:26;12.30;99.90
4701;DHT22;8724;51.272;6.554;2024-03-06T14:11:55;12.30;99.90
4701;DHT22;8724;51.272;6.554;2024-03-06T14:14:24;12.30;99.90
4701;DHT22;8724;51.272;6.554;2024-03-06T14:16:52;12.40;99.90
4701;DHT22;8724;51.272;6.554;2024-03-06T14:19:21;12.40;99.90
4701;DHT22;8724;51.272;6.554;2024-03-06T14:21:49;12.60;99.90
4701;DHT22;8724;51.272;6.554;2024-03-06T14:24:19;12.40;99.90
4701;DHT22;8724;51.272;6.554;2024-03-06T14:26:48;12.50;99.90
4701;DHT22;8724;51.272;6.554;2024-03-06T14:29:17;12.40;99.90
4701;DHT22;8724;51.272;6.554;2024-03-06T14:31:45;12.50;99.90
4701;DHT22;8724;51.272;6.554;2024-03-06T14:34:13;12.50;99.90
4701;DHT22;8724;51.272;6.554;2024-03-06T14:36:42;12.50;99.90
4701;DHT22;8724;51.272;6.554;2024-03-06T14:39:10;12.50;99.90
4701;DHT22;8724;51.272;6.554;2024-03-06T14:41:41;12.50;99.90
4701;DHT22;8724;51.272;6.554;2024-03-06T14:44:11;12.60;99.90
4701;DHT22;8724;51.272;6.554;2024-03-06T14:46:41;12.60;99.90
4701;DHT22;8724;51.272;6.554;2024-03-06T14:49:09;12.60;99.90
4701;DHT22;8724;51.272;6.554;2024-03-06T14:51:38;12.70;99.90
4701;DHT22;8724;51.272;6.554;2024-03-06T14:54:06;12.70;99.90
4701;DHT22;8724;51.272;6.554;2024-03-06T14:56:34;12.70;99.90
4701;DHT22;8724;51.272;6.554;2024-03-06T14:59:03;12.70;99.90
4701;DHT22;8724;51.272;6.554;2024-03-06T15:01:32;12.70;99.90
4701;DHT22;8724;51.272;6.554;2024-03-06T15:04:00;12.70;99.90
4701;DHT22;8724;51.272;6.554;2024-03-06T15:06:28;12.80;99.90
4701;DHT22;8724;51.272;6.554;2024-03-06T15:08:56;12.80;99.90
4701;DHT22;8724;51.272;6.554;2024-03-06T15:11:24;12.80;99.90
4701;DHT22;8724;51.272;6.554;2024-03-06T15:13:52;12.90;99.90
4701;DHT22;8724;51.272;6.554;2024-03-06T15:16:22;12.90;99.90
4701;DHT22;8724;51.272;6.554;2024-03-06T15:18:51;13.00;99.90
4701;DHT22;8724;51.272;6.554;2024-03-06T15:21:23;13.00;99.90
4701;DHT22;8724;51.272;6.554;2024-03-06T15:23:51;13.00;99.90
4701;DHT22;8724;51.272;6.554;2024-03-06T15:26:21;13.10;99.90
4701;DHT22;8724;51.272;6.554;2024-03-06T15:28:49;13.10;99.90
4701;DHT22;8724;51.272;6.554;2024-03-06T15:31:17;13.10;99.90
4701;DHT22;8724;51.272;6.554;2024-03-06T15:33:47;13.10;99.90
4701;DHT22;8724;51.272;6.554;2024-03-06T15:36:16;13.10;99.90
4701;DHT22;8724;51.272;6.554;2024-03-06T15:38:44;13.10;99.90
4701;DHT22;8724;51.272;6.554;2024-03-06T15:41:13;13.20;99.90
4701;DHT22;8724;51.272;6.554;2024-03-06T15:43:41;13.30;99.90
4701;DHT22;8724;51.272;6.554;2024-03-06T15:46:10;13.30;99.90
4701;DHT22;8724;51.272;6.554;2024-03-06T15:48:38;13.30;99.90
4701;DHT22;8724;51.272;6.554;2024-03-06T15:51:07;13.40;99.90
4701;DHT22;8724;51.272;6.554;2024-03-06T15:53:35;13.40;99.90
4701;DHT22;8724;51.272;6.554;2024-03-06T15:56:04;13.40;99.90
4701;DHT22;8724;51.272;6.554;2024-03-06T15:58:33;13.50;99.90
4701;DHT22;8724;51.272;6.554;2024-03-06T16:01:01;13.50;99.90
4701;DHT22;8724;51.272;6.554;2024-03-06T16:03:31;13.50;99.90
4701;DHT22;8724;51.272;6.554;2024-03-06T16:06:00;13.60;99.90
4701;DHT22;8724;51.272;6.554;2024-03-06T16:08:45;13.50;99.90
4701;DHT22;8724;51.272;6.554;2024-03-06T16:11:13;13.50;99.90
4701;DHT22;8724;51.272;6.554;2024-03-06T16:13:42;13.60;99.90
4701;DHT22;8724;51.272;6.554;2024-03-06T16:16:10;13.60;99.90
4701;DHT22;8724;51.272;6.554;2024-03-06T16:18:38;13.60;99.90
4701;DHT22;8724;51.272;6.554;2024-03-06T16:21:06;13.60;99.90